Time;durP1;ratioP1;P1;durP2;ratioP2;P2;SDS_P1;SDS_P2;PMS_P1;PMS_P2;Temp;Humidity;BMP_temperature;BMP_pressure;BME280_temperature;BME280_humidity;BME280_pressure;Samples;Min_cycle;Max_cycle;Signal;HPM_P1;HPM_P2
2022/01/11 00:01:26;;;;;;;4.63;2.70;;;;;;;;;;5055084;28;20232;-79
2022/01/11 00:03:54;;;;;;;5.05;3.10;;;;;;;;;;5054954;28;20193;-79
2022/01/11 00:06:30;;;;;;;6.20;2.90;;;;;;;;;;5055188;28;20202;-79
2022/01/11 00:09:06;;;;;;;4.53;3.00;;;;;;;;;;5057732;28;20236;-80
2022/01/11 00:11:35;;;;;;;4.88;2.78;;;;;;;;;;5056610;28;20205;-80
2022/01/11 00:14:03;;;;;;;4.60;2.88;;;;;;;;;;5055459;28;20202;-79
2022/01/11 00:16:30;;;;;;;3.33;2.83;;;;;;;;;;5055395;28;20198;-79
2022/01/11 00:19:01;;;;;;;3.75;3.05;;;;;;;;;;5055049;28;20822;-79
2022/01/11 00:21:29;;;;;;;3.20;2.90;;;;;;;;;;5055014;28;20582;-80
2022/01/11 00:26:42;;;;;;;4.28;2.85;;;;;;;;;;5054558;28;20208;-79
2022/01/11 00:29:09;;;;;;;7.90;3.00;;;;;;;;;;5054206;28;20222;-79
2022/01/11 00:31:37;;;;;;;7.32;4.07;;;;;;;;;;5054348;28;20210;-79
2022/01/11 00:34:07;;;;;;;4.72;3.20;;;;;;;;;;5054602;28;20255;-78
2022/01/11 00:36:41;;;;;;;5.57;3.30;;;;;;;;;;5054636;28;20201;-79
2022/01/11 00:39:10;;;;;;;8.20;3.50;;;;;;;;;;5055086;28;20225;-79
2022/01/11 00:41:39;;;;;;;5.13;3.22;;;;;;;;;;5054417;28;20205;-80
2022/01/11 00:44:08;;;;;;;4.55;3.10;;;;;;;;;;5055226;28;20625;-79
2022/01/11 00:46:36;;;;;;;8.25;3.47;;;;;;;;;;5053769;28;20197;-80
2022/01/11 00:49:04;;;;;;;4.70;3.13;;;;;;;;;;5053735;28;20222;-79
2022/01/11 00:51:31;;;;;;;5.38;4.13;;;;;;;;;;5054936;28;20722;-80
2022/01/11 00:53:58;;;;;;;5.75;4.18;;;;;;;;;;5054195;28;20264;-79
2022/01/11 00:56:26;;;;;;;5.10;3.35;;;;;;;;;;5054395;28;20272;-80
2022/01/11 00:58:53;;;;;;;6.65;3.70;;;;;;;;;;5053074;28;20226;-80
2022/01/11 01:01:22;;;;;;;5.35;3.53;;;;;;;;;;5053403;28;20205;-80
2022/01/11 01:03:49;;;;;;;6.60;3.83;;;;;;;;;;5053869;28;20208;-79
2022/01/11 01:06:17;;;;;;;7.13;4.60;;;;;;;;;;5054359;28;20194;-79
2022/01/11 01:08:44;;;;;;;6.50;4.47;;;;;;;;;;5054130;28;20221;-79
2022/01/11 01:11:11;;;;;;;6.78;5.55;;;;;;;;;;5054286;28;20297;-80
2022/01/11 01:13:39;;;;;;;10.70;5.60;;;;;;;;;;5053858;28;20680;-79
2022/01/11 01:16:08;;;;;;;8.68;5.95;;;;;;;;;;5054081;28;20271;-80
2022/01/11 01:18:37;;;;;;;7.43;5.53;;;;;;;;;;5053770;28;20312;-79
2022/01/11 01:21:05;;;;;;;8.30;6.20;;;;;;;;;;5053623;28;20297;-79
2022/01/11 01:23:32;;;;;;;8.70;5.80;;;;;;;;;;5052665;28;20202;-79
2022/01/11 01:26:01;;;;;;;11.55;6.78;;;;;;;;;;5053745;28;20201;-80
2022/01/11 01:28:28;;;;;;;13.15;7.60;;;;;;;;;;5053516;28;20225;-80
2022/01/11 01:31:00;;;;;;;11.75;7.38;;;;;;;;;;5053213;28;20198;-79
2022/01/11 01:33:28;;;;;;;13.25;8.00;;;;;;;;;;5053062;28;20292;-79
2022/01/11 01:36:01;;;;;;;7.72;5.60;;;;;;;;;;5053342;28;20225;-79
2022/01/11 01:38:30;;;;;;;9.60;5.10;;;;;;;;;;5053703;28;20225;-80
2022/01/11 01:41:03;;;;;;;7.22;5.38;;;;;;;;;;5053738;28;20205;-79
2022/01/11 01:43:31;;;;;;;6.40;4.45;;;;;;;;;;5053136;28;20263;-79
2022/01/11 01:46:00;;;;;;;5.15;4.68;;;;;;;;;;5054057;28;20205;-80
2022/01/11 01:48:29;;;;;;;6.75;4.15;;;;;;;;;;5052926;28;20225;-80
2022/01/11 01:50:58;;;;;;;3.78;3.15;;;;;;;;;;5052721;28;20559;-79
2022/01/11 01:53:26;;;;;;;5.57;3.47;;;;;;;;;;5052653;28;20209;-79
2022/01/11 01:55:53;;;;;;;4.82;3.72;;;;;;;;;;5052959;28;20225;-80
2022/01/11 01:58:21;;;;;;;7.32;4.15;;;;;;;;;;5052727;28;20233;-79
2022/01/11 02:00:54;;;;;;;6.85;4.38;;;;;;;;;;5052920;28;20209;-79
2022/01/11 02:03:26;;;;;;;5.00;3.15;;;;;;;;;;5052686;28;20661;-79
2022/01/11 02:05:55;;;;;;;5.43;4.03;;;;;;;;;;5053522;28;20202;-80
2022/01/11 02:08:25;;;;;;;8.82;4.25;;;;;;;;;;5052957;28;20272;-80
2022/01/11 02:10:53;;;;;;;10.27;5.25;;;;;;;;;;5053514;28;20735;-80
2022/01/11 02:13:20;;;;;;;7.93;4.03;;;;;;;;;;5053805;28;20269;-80
2022/01/11 02:15:49;;;;;;;6.13;3.63;;;;;;;;;;5057072;28;20226;-80
2022/01/11 02:18:21;;;;;;;10.80;4.43;;;;;;;;;;5057433;28;20570;-80
2022/01/11 02:20:51;;;;;;;4.80;3.53;;;;;;;;;;5056970;28;20856;-80
2022/01/11 02:23:20;;;;;;;6.22;3.97;;;;;;;;;;5056636;28;20201;-80
2022/01/11 02:25:48;;;;;;;7.35;4.63;;;;;;;;;;5056971;28;20731;-80
2022/01/11 02:28:19;;;;;;;5.63;4.00;;;;;;;;;;5056270;28;20225;-80
2022/01/11 02:30:46;;;;;;;7.60;4.10;;;;;;;;;;5057027;28;20205;-80
2022/01/11 02:33:23;;;;;;;5.78;4.32;;;;;;;;;;5056603;28;20673;-80
2022/01/11 02:35:52;;;;;;;6.57;4.05;;;;;;;;;;5056220;28;20229;-80
2022/01/11 02:38:20;;;;;;;4.32;3.80;;;;;;;;;;5056291;28;20295;-80
2022/01/11 02:40:47;;;;;;;5.25;3.78;;;;;;;;;;5056468;28;20201;-80
2022/01/11 02:43:15;;;;;;;7.05;4.32;;;;;;;;;;5056282;28;20335;-80
2022/01/11 02:45:42;;;;;;;7.40;4.00;;;;;;;;;;5057025;28;20198;-80
2022/01/11 02:48:09;;;;;;;5.25;3.28;;;;;;;;;;5056974;28;20275;-80
2022/01/11 02:50:37;;;;;;;7.78;3.78;;;;;;;;;;5057454;28;20201;-80
2022/01/11 02:53:05;;;;;;;4.60;2.70;;;;;;;;;;5056229;28;20229;-80
2022/01/11 02:55:37;;;;;;;5.07;2.95;;;;;;;;;;5057394;28;20201;-80
2022/01/11 02:58:04;;;;;;;4.35;2.63;;;;;;;;;;5056913;28;20229;-80
2022/01/11 03:00:32;;;;;;;5.35;2.70;;;;;;;;;;5056718;28;20206;-80
2022/01/11 03:03:11;;;;;;;4.82;2.78;;;;;;;;;;5056285;28;20591;-79
2022/01/11 03:05:38;;;;;;;7.10;3.28;;;;;;;;;;5056371;28;20212;-81
2022/01/11 03:08:07;;;;;;;5.30;2.83;;;;;;;;;;5055546;28;20229;-80
2022/01/11 03:10:34;;;;;;;4.72;3.20;;;;;;;;;;5056348;28;20567;-80
2022/01/11 03:13:03;;;;;;;5.03;3.35;;;;;;;;;;5055932;28;20201;-80
2022/01/11 03:15:30;;;;;;;4.55;2.63;;;;;;;;;;5056865;28;20263;-80
2022/01/11 03:17:57;;;;;;;3.95;2.58;;;;;;;;;;5057109;28;20229;-80
2022/01/11 03:20:24;;;;;;;4.88;3.70;;;;;;;;;;5056502;28;20210;-80
2022/01/11 03:22:52;;;;;;;5.22;2.85;;;;;;;;;;5055681;28;20205;-80
2022/01/11 03:25:20;;;;;;;7.47;3.72;;;;;;;;;;5054980;28;20247;-80
2022/01/11 03:27:48;;;;;;;5.70;4.10;;;;;;;;;;5055565;28;20217;-80
2022/01/11 03:30:15;;;;;;;5.30;3.38;;;;;;;;;;5055426;28;20259;-81
2022/01/11 03:32:42;;;;;;;4.65;2.88;;;;;;;;;;5056517;28;20251;-81
2022/01/11 03:35:11;;;;;;;6.18;3.58;;;;;;;;;;5055952;28;20197;-80
2022/01/11 03:37:39;;;;;;;5.22;2.92;;;;;;;;;;5055628;28;20226;-80
2022/01/11 03:40:11;;;;;;;4.25;2.92;;;;;;;;;;5055588;28;20224;-80
2022/01/11 03:42:40;;;;;;;2.30;2.10;;;;;;;;;;5054918;28;20214;-80
2022/01/11 03:45:10;;;;;;;4.40;2.58;;;;;;;;;;5055671;28;20297;-80
2022/01/11 03:47:39;;;;;;;3.25;2.45;;;;;;;;;;5055397;28;20655;-80
2022/01/11 03:50:08;;;;;;;3.28;2.95;;;;;;;;;;5055262;28;20210;-80
2022/01/11 03:52:35;;;;;;;3.70;3.17;;;;;;;;;;5055483;28;20229;-80
2022/01/11 03:55:06;;;;;;;5.57;3.10;;;;;;;;;;5055259;28;20201;-80
2022/01/11 03:57:34;;;;;;;5.13;2.40;;;;;;;;;;5054642;28;20217;-79
2022/01/11 04:00:08;;;;;;;4.53;3.28;;;;;;;;;;5055852;28;20622;-79
2022/01/11 04:02:36;;;;;;;4.50;3.53;;;;;;;;;;5055312;28;20208;-80
2022/01/11 04:05:03;;;;;;;5.15;3.35;;;;;;;;;;5055065;28;20208;-80
2022/01/11 04:07:31;;;;;;;3.03;2.75;;;;;;;;;;5055624;28;20614;-80
2022/01/11 04:10:00;;;;;;;2.58;2.38;;;;;;;;;;5054907;28;20202;-80
2022/01/11 04:12:27;;;;;;;2.38;2.20;;;;;;;;;;5054893;28;20584;-80
2022/01/11 04:14:54;;;;;;;4.68;3.65;;;;;;;;;;5055300;28;20197;-80
2022/01/11 04:17:23;;;;;;;6.20;3.50;;;;;;;;;;5054835;28;20241;-80
2022/01/11 04:19:52;;;;;;;4.03;2.53;;;;;;;;;;5053743;28;20677;-80
2022/01/11 04:22:20;;;;;;;2.45;2.25;;;;;;;;;;5054347;28;20198;-81
2022/01/11 04:24:47;;;;;;;2.20;2.00;;;;;;;;;;5054988;28;20202;-80
2022/01/11 04:27:14;;;;;;;2.30;2.10;;;;;;;;;;5055175;28;20681;-80
2022/01/11 04:29:42;;;;;;;3.17;2.05;;;;;;;;;;5054899;28;20198;-80
2022/01/11 04:32:10;;;;;;;2.63;2.42;;;;;;;;;;5054105;28;20228;-80
2022/01/11 04:34:39;;;;;;;2.95;2.58;;;;;;;;;;5054507;28;20669;-80
2022/01/11 04:37:06;;;;;;;3.03;2.45;;;;;;;;;;5053698;28;20228;-80
2022/01/11 04:39:34;;;;;;;1.95;1.67;;;;;;;;;;5054205;28;20664;-80
2022/01/11 04:42:01;;;;;;;2.83;2.13;;;;;;;;;;5053852;28;20248;-80
2022/01/11 04:44:28;;;;;;;4.38;2.65;;;;;;;;;;5054460;28;20677;-80
2022/01/11 04:46:56;;;;;;;1.88;1.77;;;;;;;;;;5054473;28;20665;-80
2022/01/11 04:49:23;;;;;;;3.05;2.45;;;;;;;;;;5054256;28;20218;-80
2022/01/11 04:51:53;;;;;;;3.25;2.58;;;;;;;;;;5054071;28;20692;-81
2022/01/11 04:54:21;;;;;;;2.97;2.78;;;;;;;;;;5054784;28;20252;-80
2022/01/11 04:56:48;;;;;;;5.82;3.92;;;;;;;;;;5053889;28;20217;-80
2022/01/11 04:59:15;;;;;;;3.42;2.72;;;;;;;;;;5053360;28;20229;-80
2022/01/11 05:01:43;;;;;;;3.10;2.67;;;;;;;;;;5053592;28;20206;-79
2022/01/11 05:04:12;;;;;;;6.68;4.25;;;;;;;;;;5054079;28;20267;-80
2022/01/11 05:06:40;;;;;;;2.90;2.60;;;;;;;;;;5054180;28;20651;-80
2022/01/11 05:09:08;;;;;;;3.78;3.45;;;;;;;;;;5053958;28;20222;-80
2022/01/11 05:11:36;;;;;;;5.22;3.20;;;;;;;;;;5053739;28;20634;-80
2022/01/11 05:14:03;;;;;;;5.35;4.40;;;;;;;;;;5054120;28;20206;-80
2022/01/11 05:16:30;;;;;;;4.10;3.40;;;;;;;;;;5053959;28;20197;-79
2022/01/11 05:18:57;;;;;;;3.20;2.85;;;;;;;;;;5053481;28;20252;-80
2022/01/11 05:21:25;;;;;;;2.53;2.25;;;;;;;;;;5053337;28;20205;-80
2022/01/11 05:23:52;;;;;;;2.97;2.78;;;;;;;;;;5053457;28;20205;-79
2022/01/11 05:26:20;;;;;;;2.92;2.72;;;;;;;;;;5053187;28;20634;-80
2022/01/11 05:28:48;;;;;;;2.40;2.20;;;;;;;;;;5053318;28;20222;-80
2022/01/11 05:31:15;;;;;;;2.40;2.20;;;;;;;;;;5053536;28;20275;-80
2022/01/11 05:33:42;;;;;;;5.13;3.03;;;;;;;;;;5052640;28;20224;-80
2022/01/11 05:36:09;;;;;;;4.93;2.67;;;;;;;;;;5057706;28;20201;-80
2022/01/11 05:38:37;;;;;;;4.78;2.88;;;;;;;;;;5060336;28;20225;-80
2022/01/11 05:41:04;;;;;;;2.80;2.40;;;;;;;;;;5059484;28;20212;-80
2022/01/11 05:43:35;;;;;;;3.25;2.65;;;;;;;;;;5057118;28;20202;-81
2022/01/11 05:46:02;;;;;;;2.22;2.10;;;;;;;;;;5054242;28;20201;-81
2022/01/11 05:48:32;;;;;;;3.47;1.80;;;;;;;;;;5055565;28;20221;-82
2022/01/11 05:50:59;;;;;;;3.13;1.90;;;;;;;;;;5058396;28;20201;-82
2022/01/11 05:53:26;;;;;;;4.22;2.60;;;;;;;;;;5060115;28;20210;-82
2022/01/11 05:55:54;;;;;;;3.67;2.58;;;;;;;;;;5057856;28;20259;-82
2022/01/11 05:58:21;;;;;;;4.28;2.90;;;;;;;;;;5057445;28;20287;-81
2022/01/11 06:00:50;;;;;;;3.72;2.88;;;;;;;;;;5058097;28;20205;-82
2022/01/11 06:03:17;;;;;;;4.38;3.22;;;;;;;;;;5057033;28;20206;-82
2022/01/11 06:05:45;;;;;;;4.38;3.30;;;;;;;;;;5058089;28;20391;-82
2022/01/11 06:08:16;;;;;;;3.38;2.60;;;;;;;;;;5058022;28;20240;-82
2022/01/11 06:10:43;;;;;;;3.10;2.42;;;;;;;;;;5058099;28;20208;-82
2022/01/11 06:13:11;;;;;;;6.90;3.35;;;;;;;;;;5057510;28;20673;-82
2022/01/11 06:15:38;;;;;;;3.70;3.03;;;;;;;;;;5058079;28;20206;-82
2022/01/11 06:18:07;;;;;;;3.40;3.00;;;;;;;;;;5057457;28;20225;-82
2022/01/11 06:20:35;;;;;;;4.63;3.65;;;;;;;;;;5057716;28;20213;-82
2022/01/11 06:23:02;;;;;;;5.63;3.50;;;;;;;;;;5057147;28;20202;-82
2022/01/11 06:25:29;;;;;;;6.20;4.78;;;;;;;;;;5058346;28;20212;-82
2022/01/11 06:27:57;;;;;;;5.03;4.05;;;;;;;;;;5057255;28;20688;-82
2022/01/11 06:30:24;;;;;;;6.47;3.70;;;;;;;;;;5057020;28;20202;-85
2022/01/11 06:32:51;;;;;;;5.88;4.50;;;;;;;;;;5056800;28;20217;-81
2022/01/11 06:35:20;;;;;;;9.25;4.43;;;;;;;;;;5056856;28;20758;-81
2022/01/11 06:37:48;;;;;;;4.95;4.05;;;;;;;;;;5056973;28;20225;-82
2022/01/11 06:40:18;;;;;;;6.07;3.72;;;;;;;;;;5056830;28;20202;-81
2022/01/11 06:42:46;;;;;;;4.20;3.30;;;;;;;;;;5056613;28;20312;-81
2022/01/11 06:45:13;;;;;;;4.72;3.25;;;;;;;;;;5055806;28;20209;-82
2022/01/11 06:47:43;;;;;;;4.85;4.35;;;;;;;;;;5056331;28;20274;-83
2022/01/11 06:50:11;;;;;;;8.48;5.20;;;;;;;;;;5055280;28;20201;-81
2022/01/11 06:52:40;;;;;;;7.13;5.60;;;;;;;;;;5055558;28;20735;-81
2022/01/11 06:55:09;;;;;;;7.22;5.40;;;;;;;;;;5056387;28;20247;-81
2022/01/11 06:57:36;;;;;;;8.30;5.68;;;;;;;;;;5055294;28;20251;-82
2022/01/11 07:00:07;;;;;;;6.93;5.75;;;;;;;;;;5054972;28;20222;-82
2022/01/11 07:02:34;;;;;;;11.45;6.43;;;;;;;;;;5055322;28;20206;-81
2022/01/11 07:05:01;;;;;;;8.82;6.18;;;;;;;;;;5055908;28;20243;-82
2022/01/11 07:07:28;;;;;;;5.47;4.60;;;;;;;;;;5055478;28;20201;-82
2022/01/11 07:09:57;;;;;;;4.82;4.35;;;;;;;;;;5055437;28;20205;-82
2022/01/11 07:12:25;;;;;;;5.90;4.45;;;;;;;;;;5062103;28;20805;-82
2022/01/11 07:14:52;;;;;;;4.57;4.13;;;;;;;;;;5076613;28;20251;-82
2022/01/11 07:17:21;;;;;;;4.30;3.10;;;;;;;;;;5075242;28;20205;-82
2022/01/11 07:19:48;;;;;;;6.15;4.95;;;;;;;;;;5060342;28;20225;-82
2022/01/11 07:22:15;;;;;;;6.68;3.38;;;;;;;;;;5054817;28;20208;-82
2022/01/11 07:24:43;;;;;;;3.85;2.78;;;;;;;;;;5055413;28;20275;-82
2022/01/11 07:27:11;;;;;;;2.72;2.47;;;;;;;;;;5055744;28;20669;-82
2022/01/11 07:29:39;;;;;;;2.30;2.03;;;;;;;;;;5055533;28;20217;-82
2022/01/11 07:32:07;;;;;;;2.30;1.95;;;;;;;;;;5054742;28;20205;-82
2022/01/11 07:34:34;;;;;;;2.45;2.20;;;;;;;;;;5054950;28;20206;-86
2022/01/11 07:37:01;;;;;;;2.67;2.22;;;;;;;;;;5056942;28;20260;-82
2022/01/11 07:39:29;;;;;;;2.65;2.33;;;;;;;;;;5054139;28;20587;-83
2022/01/11 07:41:56;;;;;;;2.80;2.40;;;;;;;;;;5054015;28;20628;-83
2022/01/11 07:44:25;;;;;;;2.53;2.33;;;;;;;;;;5054482;28;20610;-83
2022/01/11 07:46:53;;;;;;;4.60;4.20;;;;;;;;;;5055128;28;20205;-83
2022/01/11 07:49:21;;;;;;;5.38;4.38;;;;;;;;;;5054759;28;20229;-82
2022/01/11 07:51:48;;;;;;;5.88;4.38;;;;;;;;;;5053240;28;20209;-82
2022/01/11 07:54:15;;;;;;;4.35;3.63;;;;;;;;;;5055115;28;20564;-82
2022/01/11 07:56:43;;;;;;;3.65;3.35;;;;;;;;;;5054974;28;20681;-82
2022/01/11 07:59:11;;;;;;;2.90;2.17;;;;;;;;;;5054706;28;20222;-84
2022/01/11 08:01:39;;;;;;;3.45;3.15;;;;;;;;;;5054379;28;20677;-82
2022/01/11 08:04:07;;;;;;;4.45;2.67;;;;;;;;;;5054754;28;20205;-83
2022/01/11 08:06:35;;;;;;;2.08;1.63;;;;;;;;;;5054704;28;20205;-83
2022/01/11 08:09:03;;;;;;;1.98;1.70;;;;;;;;;;5055555;28;20645;-82
2022/01/11 08:11:30;;;;;;;2.40;2.20;;;;;;;;;;5054665;28;20193;-83
2022/01/11 08:13:57;;;;;;;4.88;3.60;;;;;;;;;;5055028;28;20259;-83
2022/01/11 08:16:25;;;;;;;4.47;4.07;;;;;;;;;;5055202;28;20198;-84
2022/01/11 08:18:53;;;;;;;4.65;4.03;;;;;;;;;;5054253;28;20662;-82
2022/01/11 08:21:21;;;;;;;5.22;4.82;;;;;;;;;;5054949;28;20592;-82
2022/01/11 08:23:48;;;;;;;4.85;4.28;;;;;;;;;;5054754;28;20255;-82
2022/01/11 08:26:15;;;;;;;5.05;3.67;;;;;;;;;;5054063;28;20201;-81
2022/01/11 08:28:44;;;;;;;3.20;3.00;;;;;;;;;;5053950;28;20816;-83
2022/01/11 08:31:11;;;;;;;3.22;2.97;;;;;;;;;;5054617;28;20239;-81
2022/01/11 08:33:39;;;;;;;3.55;3.25;;;;;;;;;;5055155;28;20723;-83
2022/01/11 08:36:08;;;;;;;4.50;3.92;;;;;;;;;;5055303;28;20256;-83
2022/01/11 08:38:36;;;;;;;4.20;3.80;;;;;;;;;;5054950;28;20224;-83
2022/01/11 08:41:03;;;;;;;4.05;3.65;;;;;;;;;;5055500;28;20217;-83
2022/01/11 08:43:31;;;;;;;3.45;3.15;;;;;;;;;;5055545;28;20208;-84
2022/01/11 08:45:59;;;;;;;3.40;3.10;;;;;;;;;;5057294;28;20571;-85
2022/01/11 08:48:26;;;;;;;2.90;2.70;;;;;;;;;;5056262;28;20622;-83
2022/01/11 08:50:54;;;;;;;4.10;3.70;;;;;;;;;;5055745;28;20210;-84
2022/01/11 08:53:23;;;;;;;3.03;2.72;;;;;;;;;;5054256;28;20202;-85
2022/01/11 08:55:51;;;;;;;4.13;3.30;;;;;;;;;;5056945;28;20198;-85
2022/01/11 08:58:20;;;;;;;2.55;2.35;;;;;;;;;;5056820;28;20237;-85
2022/01/11 09:00:49;;;;;;;3.67;3.05;;;;;;;;;;5057189;28;20725;-85
2022/01/11 09:03:17;;;;;;;4.00;3.60;;;;;;;;;;5056178;28;20252;-84
2022/01/11 09:05:44;;;;;;;3.05;2.85;;;;;;;;;;5054998;28;20213;-85
2022/01/11 09:08:13;;;;;;;3.33;3.03;;;;;;;;;;5054750;28;20267;-85
2022/01/11 09:10:41;;;;;;;2.80;2.60;;;;;;;;;;5055087;28;20201;-85
2022/01/11 09:13:09;;;;;;;2.72;2.53;;;;;;;;;;5054751;28;20746;-85
2022/01/11 09:15:36;;;;;;;3.78;3.47;;;;;;;;;;5055501;28;20208;-85
2022/01/11 09:18:05;;;;;;;3.08;2.78;;;;;;;;;;5056014;28;20229;-85
2022/01/11 09:20:32;;;;;;;2.20;2.00;;;;;;;;;;5055124;28;20225;-84
2022/01/11 09:23:00;;;;;;;2.60;2.40;;;;;;;;;;5055419;28;20208;-85
2022/01/11 09:25:27;;;;;;;2.75;2.60;;;;;;;;;;5055689;28;20202;-86
2022/01/11 09:27:56;;;;;;;3.15;2.95;;;;;;;;;;5055779;28;20275;-85
2022/01/11 09:30:23;;;;;;;2.65;2.45;;;;;;;;;;5055536;28;20193;-85
2022/01/11 09:32:50;;;;;;;3.30;3.00;;;;;;;;;;5055001;28;20213;-85
2022/01/11 09:35:18;;;;;;;2.55;2.35;;;;;;;;;;5056203;28;20264;-86
2022/01/11 09:37:46;;;;;;;2.53;2.42;;;;;;;;;;5055574;28;20660;-85
2022/01/11 09:40:14;;;;;;;4.75;4.35;;;;;;;;;;5055876;28;20256;-86
2022/01/11 09:42:42;;;;;;;3.60;3.30;;;;;;;;;;5055931;28;20559;-85
2022/01/11 09:45:12;;;;;;;4.70;4.30;;;;;;;;;;5067507;28;20562;-86
2022/01/11 09:47:41;;;;;;;4.25;3.85;;;;;;;;;;5077197;28;20595;-86
2022/01/11 09:50:11;;;;;;;5.38;4.55;;;;;;;;;;5063975;28;20579;-86
2022/01/11 09:52:39;;;;;;;4.95;4.53;;;;;;;;;;5060851;28;20196;-86
2022/01/11 09:55:09;;;;;;;6.35;5.75;;;;;;;;;;5073491;28;20198;-86
2022/01/11 09:57:36;;;;;;;5.05;4.20;;;;;;;;;;5060804;28;20194;-85
2022/01/11 10:00:08;;;;;;;3.85;3.55;;;;;;;;;;5057829;28;20229;-85
2022/01/11 10:02:36;;;;;;;4.75;4.32;;;;;;;;;;5058231;28;20678;-85
2022/01/11 10:05:08;;;;;;;3.55;3.25;;;;;;;;;;5057950;28;20209;-85
2022/01/11 10:07:40;;;;;;;3.83;3.53;;;;;;;;;;5058176;28;20175;-85
2022/01/11 10:10:14;;;;;;;5.50;4.60;;;;;;;;;;5058262;28;20209;-85
2022/01/11 10:12:44;;;;;;;5.60;5.10;;;;;;;;;;5057541;28;20202;-86
2022/01/11 10:15:12;;;;;;;5.13;4.63;;;;;;;;;;5057721;28;20178;-85
2022/01/11 10:17:44;;;;;;;4.35;3.95;;;;;;;;;;5055997;28;20225;-85
2022/01/11 10:20:14;;;;;;;3.33;3.03;;;;;;;;;;5055421;28;20222;-85
2022/01/11 10:22:50;;;;;;;3.45;3.25;;;;;;;;;;5053265;28;20627;-83
2022/01/11 10:25:18;;;;;;;3.53;3.22;;;;;;;;;;5054644;28;20201;-84
2022/01/11 10:27:53;;;;;;;5.72;4.85;;;;;;;;;;5054604;28;20232;-84
2022/01/11 10:30:23;;;;;;;5.43;4.43;;;;;;;;;;5054370;28;20198;-84
2022/01/11 10:32:55;;;;;;;4.25;3.85;;;;;;;;;;5054814;28;20194;-84
2022/01/11 10:35:25;;;;;;;6.30;5.72;;;;;;;;;;5056269;28;20198;-84
2022/01/11 10:37:54;;;;;;;5.95;5.50;;;;;;;;;;5058628;28;20287;-84
2022/01/11 10:40:26;;;;;;;5.60;5.10;;;;;;;;;;5058259;28;20279;-84
2022/01/11 10:42:56;;;;;;;5.50;4.97;;;;;;;;;;5058747;28;20284;-85
2022/01/11 10:45:25;;;;;;;4.45;4.05;;;;;;;;;;5058393;28;20190;-84
2022/01/11 10:47:56;;;;;;;4.13;3.72;;;;;;;;;;5058112;28;20268;-84
2022/01/11 10:50:28;;;;;;;4.85;4.40;;;;;;;;;;5057694;28;20197;-84
2022/01/11 10:52:56;;;;;;;5.07;4.55;;;;;;;;;;5057155;28;20205;-84
2022/01/11 10:55:28;;;;;;;4.13;3.75;;;;;;;;;;5057639;28;20718;-84
2022/01/11 10:57:58;;;;;;;6.85;6.07;;;;;;;;;;5057109;28;20226;-84
2022/01/11 11:00:29;;;;;;;6.05;5.50;;;;;;;;;;5058304;28;20194;-83
2022/01/11 11:03:03;;;;;;;7.75;7.05;;;;;;;;;;5056356;28;20205;-84
2022/01/11 11:05:37;;;;;;;8.15;7.15;;;;;;;;;;5058405;28;20202;-85
2022/01/11 11:08:13;;;;;;;8.30;7.38;;;;;;;;;;5058429;28;20224;-85
2022/01/11 11:10:47;;;;;;;7.82;7.10;;;;;;;;;;5063046;28;20665;-84
2022/01/11 11:13:24;;;;;;;6.93;6.22;;;;;;;;;;5063103;28;20197;-85
2022/01/11 11:15:53;;;;;;;6.53;5.90;;;;;;;;;;5065702;28;20197;-85
2022/01/11 11:18:38;;;;;;;5.75;5.25;;;;;;;;;;5060081;28;20709;-85
2022/01/11 11:21:19;;;;;;;6.18;5.45;;;;;;;;;;5058253;28;20316;-85
2022/01/11 11:23:48;;;;;;;5.70;5.15;;;;;;;;;;5058092;28;20186;-85
2022/01/11 11:26:16;;;;;;;5.35;4.85;;;;;;;;;;5057810;28;20232;-84
2022/01/11 11:28:44;;;;;;;7.97;7.07;;;;;;;;;;5057161;28;20591;-85
2022/01/11 11:31:11;;;;;;;8.57;7.38;;;;;;;;;;5057330;28;20213;-84
2022/01/11 11:33:41;;;;;;;7.00;6.30;;;;;;;;;;5057230;28;20753;-84
2022/01/11 11:36:14;;;;;;;6.25;5.65;;;;;;;;;;5058155;28;20669;-84
2022/01/11 11:38:46;;;;;;;9.23;7.38;;;;;;;;;;5057981;28;20232;-84
2022/01/11 11:41:14;;;;;;;7.55;6.78;;;;;;;;;;5058832;28;20229;-84
2022/01/11 11:43:41;;;;;;;6.32;5.72;;;;;;;;;;5057605;28;20699;-84
2022/01/11 11:46:09;;;;;;;6.32;4.82;;;;;;;;;;5057196;28;20231;-84
2022/01/11 11:48:36;;;;;;;5.85;5.25;;;;;;;;;;5057336;28;20218;-83
2022/01/11 11:51:10;;;;;;;9.65;8.68;;;;;;;;;;5057250;28;20676;-84
2022/01/11 11:53:40;;;;;;;7.20;6.28;;;;;;;;;;5057187;28;20205;-83
2022/01/11 11:56:19;;;;;;;7.55;6.50;;;;;;;;;;5057669;28;20205;-85
2022/01/11 11:58:50;;;;;;;7.22;6.53;;;;;;;;;;5058213;28;20225;-83
2022/01/11 12:01:42;;;;;;;5.57;5.07;;;;;;;;;;5063031;28;20221;-83
2022/01/11 12:04:12;;;;;;;6.68;6.07;;;;;;;;;;5063188;28;20232;-83
2022/01/11 12:06:41;;;;;;;5.75;5.00;;;;;;;;;;5063752;28;20201;-84
2022/01/11 12:09:11;;;;;;;7.30;6.63;;;;;;;;;;5064055;28;20229;-83
2022/01/11 12:11:44;;;;;;;5.70;5.20;;;;;;;;;;5062889;28;20201;-83
2022/01/11 12:14:31;;;;;;;5.25;4.75;;;;;;;;;;5061720;28;20272;-83
2022/01/11 12:16:58;;;;;;;7.18;6.47;;;;;;;;;;5061982;28;20209;-83
2022/01/11 12:19:47;;;;;;;7.53;6.82;;;;;;;;;;5062301;28;20225;-83
2022/01/11 12:22:32;;;;;;;6.90;6.20;;;;;;;;;;5062457;28;20232;-83
2022/01/11 12:25:03;;;;;;;7.25;6.55;;;;;;;;;;5057913;28;20198;-85
2022/01/11 12:27:30;;;;;;;7.03;6.32;;;;;;;;;;5062522;28;20206;-83
2022/01/11 12:30:08;;;;;;;7.03;6.32;;;;;;;;;;5061931;28;20205;-83
2022/01/11 12:32:55;;;;;;;5.70;5.13;;;;;;;;;;5061659;28;20209;-82
2022/01/11 12:35:23;;;;;;;6.22;5.40;;;;;;;;;;5061042;28;20271;-82
2022/01/11 12:38:08;;;;;;;10.35;8.00;;;;;;;;;;5061822;28;20750;-84
2022/01/11 12:40:40;;;;;;;10.40;8.32;;;;;;;;;;5063147;28;20221;-83
2022/01/11 12:43:16;;;;;;;7.40;6.18;;;;;;;;;;5060435;28;20273;-82
2022/01/11 12:46:07;;;;;;;7.57;6.53;;;;;;;;;;5059146;28;20211;-82
2022/01/11 12:49:01;;;;;;;6.35;5.75;;;;;;;;;;5057003;28;20260;-81
2022/01/11 12:51:37;;;;;;;5.85;5.35;;;;;;;;;;5062599;28;20209;-82
2022/01/11 12:54:32;;;;;;;5.88;5.38;;;;;;;;;;5062197;28;20207;-82
2022/01/11 12:57:01;;;;;;;6.13;5.45;;;;;;;;;;5044168;28;20202;-82
2022/01/11 12:59:33;;;;;;;6.00;5.40;;;;;;;;;;5060582;28;20232;-83
2022/01/11 13:02:08;;;;;;;4.82;4.43;;;;;;;;;;5060905;28;20227;-83
2022/01/11 13:04:48;;;;;;;5.13;4.72;;;;;;;;;;5060632;28;20197;-81
2022/01/11 13:07:23;;;;;;;9.05;8.07;;;;;;;;;;5060845;28;20288;-83
2022/01/11 13:10:12;;;;;;;8.07;7.28;;;;;;;;;;5061136;28;20204;-82
2022/01/11 13:12:42;;;;;;;10.60;9.25;;;;;;;;;;5061623;28;20232;-82
2022/01/11 13:15:14;;;;;;;8.45;7.65;;;;;;;;;;5063207;28;20198;-82
2022/01/11 13:17:59;;;;;;;10.30;9.20;;;;;;;;;;5062798;28;20316;-83
2022/01/11 13:20:29;;;;;;;6.68;6.05;;;;;;;;;;5061943;28;20209;-82
2022/01/11 13:23:16;;;;;;;5.97;5.40;;;;;;;;;;5059798;28;20229;-82
2022/01/11 13:25:49;;;;;;;8.70;7.90;;;;;;;;;;5061946;28;20205;-83
2022/01/11 13:28:19;;;;;;;7.75;6.50;;;;;;;;;;5061593;28;20221;-83
2022/01/11 13:30:49;;;;;;;12.38;9.63;;;;;;;;;;5061875;28;20220;-83
2022/01/11 13:33:28;;;;;;;9.85;8.35;;;;;;;;;;5062341;28;20201;-83
2022/01/11 13:35:55;;;;;;;9.48;8.38;;;;;;;;;;5062914;28;20205;-83
2022/01/11 13:38:23;;;;;;;7.63;6.93;;;;;;;;;;5062682;28;20600;-83
2022/01/11 13:40:51;;;;;;;6.85;6.20;;;;;;;;;;5062050;28;20206;-83
2022/01/11 13:43:20;;;;;;;6.45;4.70;;;;;;;;;;5061907;28;20224;-83
2022/01/11 13:45:48;;;;;;;7.53;6.82;;;;;;;;;;5061858;28;20212;-83
2022/01/11 13:48:19;;;;;;;7.72;6.30;;;;;;;;;;5062379;28;20635;-83
2022/01/11 13:50:49;;;;;;;6.70;6.03;;;;;;;;;;5061151;28;20254;-83
2022/01/11 13:53:29;;;;;;;9.50;7.75;;;;;;;;;;5061177;28;20220;-82
2022/01/11 13:56:08;;;;;;;6.93;6.25;;;;;;;;;;5060770;28;20205;-82
2022/01/11 13:58:38;;;;;;;5.95;5.35;;;;;;;;;;5061405;28;20238;-82
2022/01/11 14:01:07;;;;;;;6.95;6.25;;;;;;;;;;5061535;28;20190;-83
2022/01/11 14:03:35;;;;;;;5.88;5.28;;;;;;;;;;5061814;28;20221;-83
2022/01/11 14:06:13;;;;;;;6.97;6.28;;;;;;;;;;5061611;28;20201;-82
2022/01/11 14:08:47;;;;;;;6.53;5.95;;;;;;;;;;5060981;28;20237;-82
2022/01/11 14:11:26;;;;;;;6.53;5.95;;;;;;;;;;5065287;28;20665;-82
2022/01/11 14:13:59;;;;;;;6.50;5.82;;;;;;;;;;5065787;28;20197;-82
2022/01/11 14:16:26;;;;;;;6.25;5.65;;;;;;;;;;5065943;28;20233;-82
2022/01/11 14:19:06;;;;;;;6.78;6.07;;;;;;;;;;5064189;28;20287;-82
2022/01/11 14:21:34;;;;;;;5.00;4.57;;;;;;;;;;5065917;28;20221;-81
2022/01/11 14:24:02;;;;;;;4.43;4.03;;;;;;;;;;5065884;28;20754;-81
2022/01/11 14:26:37;;;;;;;5.22;4.72;;;;;;;;;;5065275;28;20201;-81
2022/01/11 14:29:04;;;;;;;5.20;4.75;;;;;;;;;;5065010;28;20232;-82
2022/01/11 14:31:33;;;;;;;5.05;4.55;;;;;;;;;;5064546;28;20198;-82
2022/01/11 14:34:10;;;;;;;4.07;3.72;;;;;;;;;;5065063;28;20228;-82
2022/01/11 14:36:38;;;;;;;6.75;5.30;;;;;;;;;;5066335;28;20202;-82
2022/01/11 14:39:11;;;;;;;6.97;6.30;;;;;;;;;;5065329;28;20226;-82
2022/01/11 14:41:42;;;;;;;5.25;4.75;;;;;;;;;;5064873;28;20205;-82
2022/01/11 14:44:15;;;;;;;6.72;6.13;;;;;;;;;;5065131;28;20230;-82
2022/01/11 14:46:47;;;;;;;6.55;5.95;;;;;;;;;;5065368;28;20201;-82
2022/01/11 14:49:18;;;;;;;5.65;5.25;;;;;;;;;;5065437;28;20245;-82
2022/01/11 14:51:50;;;;;;;5.57;5.07;;;;;;;;;;5064784;28;20210;-82
2022/01/11 14:54:22;;;;;;;4.43;4.13;;;;;;;;;;5065726;28;20225;-82
2022/01/11 14:56:53;;;;;;;5.00;4.50;;;;;;;;;;5065722;28;20194;-82
2022/01/11 14:59:23;;;;;;;5.22;4.82;;;;;;;;;;5064452;28;20248;-83
2022/01/11 15:01:56;;;;;;;4.80;4.40;;;;;;;;;;5064639;28;20376;-82